createdAt,value
2023-07-18T00:01:05.936Z,5.88
2023-07-18T00:03:09.268Z,5.63
2023-07-18T00:05:13.807Z,5.25
2023-07-18T00:07:16.719Z,4.75
2023-07-18T00:09:19.474Z,5.18
2023-07-18T00:11:23.856Z,5.18
2023-07-18T00:13:26.677Z,5.45
2023-07-18T00:15:29.804Z,5.57
2023-07-18T00:17:34.910Z,5.35
2023-07-18T00:19:38.713Z,5.93
2023-07-18T00:21:42.196Z,5.15
2023-07-18T00:23:44.977Z,5.50
2023-07-18T00:25:47.798Z,5.43
2023-07-18T00:27:54.522Z,5.47
2023-07-18T00:29:57.385Z,6.00
2023-07-18T00:32:00.217Z,6.00
2023-07-18T00:34:04.307Z,5.75
2023-07-18T00:36:07.708Z,5.50
2023-07-18T00:38:10.533Z,5.03
2023-07-18T00:40:16.230Z,6.15
2023-07-18T00:42:19.157Z,5.80
2023-07-18T00:44:23.294Z,5.25
2023-07-18T00:46:26.604Z,5.47
2023-07-18T00:48:30.154Z,6.07
2023-07-18T00:50:32.852Z,6.20
2023-07-18T00:52:36.969Z,5.63
2023-07-18T00:54:40.706Z,5.43
2023-07-18T00:56:43.883Z,5.63
2023-07-18T00:58:47.194Z,5.35
2023-07-18T01:00:51.344Z,5.85
2023-07-18T01:02:55.517Z,6.07
2023-07-18T01:04:58.411Z,5.40
2023-07-18T01:07:01.963Z,5.63
2023-07-18T01:09:06.430Z,5.22
2023-07-18T01:11:10.963Z,6.35
2023-07-18T01:13:14.257Z,5.70
2023-07-18T01:15:17.984Z,5.70
2023-07-18T01:17:23.071Z,6.03
2023-07-18T01:19:25.832Z,6.10
2023-07-18T01:21:29.080Z,6.15
2023-07-18T01:23:31.873Z,6.15
2023-07-18T01:25:35.731Z,6.05
2023-07-18T01:27:38.557Z,6.18
2023-07-18T01:29:41.376Z,6.57
2023-07-18T01:31:44.147Z,5.82
2023-07-18T01:33:47.309Z,5.78
2023-07-18T01:35:52.942Z,6.28
2023-07-18T01:37:58.677Z,5.90
2023-07-18T01:40:00.594Z,6.38
2023-07-18T01:42:03.351Z,6.63
2023-07-18T01:44:06.568Z,6.13
2023-07-18T01:46:09.315Z,6.00
2023-07-18T01:48:12.268Z,5.90
2023-07-18T01:50:14.834Z,6.38
2023-07-18T01:52:17.626Z,6.05
2023-07-18T01:54:21.759Z,6.25
2023-07-18T01:56:24.844Z,6.68
2023-07-18T01:58:27.680Z,6.72
2023-07-18T02:00:32.224Z,6.80
2023-07-18T02:02:34.081Z,6.53
2023-07-18T02:04:36.854Z,6.05
2023-07-18T02:06:39.602Z,6.40
2023-07-18T02:08:42.332Z,6.20
2023-07-18T02:10:46.446Z,6.53
2023-07-18T02:12:48.503Z,6.25
2023-07-18T02:14:51.334Z,6.68
2023-07-18T02:16:54.302Z,6.18
2023-07-18T02:18:58.314Z,5.70
2023-07-18T02:21:01.147Z,6.07
2023-07-18T02:23:03.034Z,6.60
2023-07-18T02:25:06.976Z,6.70
2023-07-18T02:27:11.121Z,6.55
2023-07-18T02:29:14.289Z,6.80
2023-07-18T02:31:17.152Z,6.72
2023-07-18T02:33:19.972Z,7.07
2023-07-18T02:35:23.103Z,7.57
2023-07-18T02:37:27.249Z,6.43
2023-07-18T02:39:31.509Z,5.90
2023-07-18T02:41:34.335Z,6.38
2023-07-18T02:43:38.459Z,6.85
2023-07-18T02:45:42.532Z,6.68
2023-07-18T02:47:45.330Z,6.35
2023-07-18T02:49:48.094Z,6.88
2023-07-18T02:51:50.860Z,6.65
2023-07-18T02:53:54.516Z,6.68
2023-07-18T02:55:57.274Z,6.50
2023-07-18T02:57:59.064Z,7.20
2023-07-18T03:00:04.391Z,5.68
2023-07-18T03:02:07.801Z,6.38
2023-07-18T03:04:10.649Z,6.22
2023-07-18T03:06:13.415Z,6.25
2023-07-18T03:08:16.216Z,7.28
2023-07-18T03:10:19.027Z,6.88
2023-07-18T03:12:22.427Z,6.78
2023-07-18T03:14:25.255Z,8.30
2023-07-18T03:16:29.403Z,7.35
2023-07-18T03:18:32.469Z,7.03
2023-07-18T03:20:35.391Z,6.97
2023-07-18T03:22:38.213Z,7.20
2023-07-18T03:24:41.811Z,6.72
2023-07-18T03:26:44.559Z,6.05
2023-07-18T03:28:47.557Z,7.38
2023-07-18T03:30:50.302Z,7.93
2023-07-18T03:32:55.266Z,6.78
2023-07-18T03:34:57.059Z,6.70
2023-07-18T03:36:59.832Z,7.43
2023-07-18T03:39:02.616Z,7.20
2023-07-18T03:41:04.445Z,6.50
2023-07-18T03:43:07.226Z,6.82
2023-07-18T03:45:14.131Z,6.53
2023-07-18T03:47:21.267Z,7.70
2023-07-18T03:49:25.793Z,7.03
2023-07-18T03:51:29.723Z,6.20
2023-07-18T03:53:34.944Z,6.55
2023-07-18T03:55:37.779Z,6.18
2023-07-18T03:57:41.153Z,6.75
2023-07-18T03:59:44.150Z,7.20
2023-07-18T04:01:47.251Z,7.35
2023-07-18T04:03:50.255Z,7.88
2023-07-18T04:05:54.434Z,7.07
2023-07-18T04:07:57.285Z,7.05
2023-07-18T04:10:00.318Z,7.45
2023-07-18T04:12:03.174Z,7.57
2023-07-18T04:14:06.122Z,7.30
2023-07-18T04:16:08.916Z,6.60
2023-07-18T04:18:11.673Z,6.50
2023-07-18T04:20:15.201Z,7.03
2023-07-18T04:22:19.321Z,6.72
2023-07-18T04:24:22.567Z,8.15
2023-07-18T04:26:25.345Z,7.05
2023-07-18T04:28:28.981Z,6.95
2023-07-18T04:30:31.730Z,6.47
2023-07-18T04:32:35.088Z,6.82
2023-07-18T04:34:37.921Z,6.50
2023-07-18T04:36:40.751Z,7.03
2023-07-18T04:38:45.214Z,6.53
2023-07-18T04:40:47.985Z,7.47
2023-07-18T04:42:50.718Z,6.10
2023-07-18T04:44:53.581Z,7.47
2023-07-18T04:46:56.407Z,6.40
2023-07-18T04:48:59.467Z,6.57
2023-07-18T04:51:03.904Z,6.80
2023-07-18T04:53:06.849Z,6.47
2023-07-18T04:55:11.562Z,6.82
2023-07-18T04:57:14.355Z,6.25
2023-07-18T04:59:17.145Z,6.03
2023-07-18T05:01:20.062Z,6.18
2023-07-18T05:03:23.095Z,5.93
2023-07-18T05:05:26.255Z,6.25
2023-07-18T05:07:29.027Z,6.55
2023-07-18T05:09:31.826Z,6.05
2023-07-18T05:11:35.974Z,6.00
2023-07-18T05:13:38.771Z,5.70
2023-07-18T05:15:43.825Z,6.05
2023-07-18T05:17:47.437Z,6.45
2023-07-18T05:19:50.264Z,6.22
2023-07-18T05:21:53.074Z,6.30
2023-07-18T05:23:55.942Z,6.38
2023-07-18T05:25:59.157Z,5.97
2023-07-18T05:28:03.277Z,5.78
2023-07-18T05:30:08.111Z,6.00
2023-07-18T05:32:10.884Z,6.50
2023-07-18T05:34:13.784Z,6.10
2023-07-18T05:36:17.454Z,5.97
2023-07-18T05:38:20.348Z,6.25
2023-07-18T05:40:23.193Z,6.65
2023-07-18T05:42:25.984Z,6.30
2023-07-18T05:44:29.140Z,6.80
2023-07-18T05:46:31.966Z,5.93
2023-07-18T05:48:34.873Z,5.88
2023-07-18T05:50:37.680Z,5.32
2023-07-18T05:52:40.601Z,5.03
2023-07-18T05:54:43.422Z,5.72
2023-07-18T05:56:45.214Z,5.15
2023-07-18T05:58:48.570Z,5.60
2023-07-18T06:00:52.737Z,5.85
2023-07-18T06:02:58.355Z,4.85
2023-07-18T06:05:00.782Z,5.55
2023-07-18T06:07:03.533Z,4.75
2023-07-18T06:09:06.333Z,5.20
2023-07-18T06:11:09.104Z,5.38
2023-07-18T06:13:12.890Z,4.72
2023-07-18T06:15:15.736Z,4.30
2023-07-18T06:17:19.870Z,4.63
2023-07-18T06:19:22.901Z,3.97
2023-07-18T06:21:28.069Z,4.97
2023-07-18T06:23:31.272Z,5.18
2023-07-18T06:25:34.050Z,4.50
2023-07-18T06:27:36.826Z,4.35
2023-07-18T06:29:39.589Z,4.82
2023-07-18T06:31:43.200Z,4.57
2023-07-18T06:33:47.611Z,4.40
2023-07-18T06:35:53.741Z,5.22
2023-07-18T06:37:55.490Z,5.03
2023-07-18T06:39:58.244Z,4.20
2023-07-18T06:42:01.046Z,4.57
2023-07-18T06:44:05.707Z,5.22
2023-07-18T06:46:10.155Z,4.65
2023-07-18T06:48:13.229Z,5.32
2023-07-18T06:50:17.572Z,6.20
2023-07-18T06:52:20.346Z,5.10
2023-07-18T06:54:23.099Z,4.78
2023-07-18T06:56:26.022Z,5.03
2023-07-18T06:58:27.839Z,4.82
2023-07-18T07:00:30.617Z,5.28
2023-07-18T07:02:33.528Z,5.38
2023-07-18T07:04:37.934Z,4.90
2023-07-18T07:06:43.633Z,4.53
2023-07-18T07:08:46.518Z,4.72
2023-07-18T07:10:49.307Z,4.75
2023-07-18T07:12:52.105Z,5.10
2023-07-18T07:14:54.872Z,4.35
2023-07-18T07:16:58.331Z,4.90
2023-07-18T07:19:01.137Z,4.63
2023-07-18T07:21:04.064Z,5.53
2023-07-18T07:23:08.260Z,4.85
2023-07-18T07:25:11.175Z,4.90
2023-07-18T07:27:14.719Z,4.55
2023-07-18T07:29:19.389Z,4.38
2023-07-18T07:31:22.739Z,4.10
2023-07-18T07:33:27.178Z,4.00
2023-07-18T07:35:31.054Z,4.18
2023-07-18T07:37:32.858Z,4.35
2023-07-18T07:39:37.113Z,4.32
2023-07-18T07:41:39.906Z,4.05
2023-07-18T07:43:42.799Z,3.70
2023-07-18T07:45:45.557Z,3.78
2023-07-18T07:47:48.355Z,4.07
2023-07-18T07:49:51.612Z,4.20
2023-07-18T07:51:54.415Z,4.03
2023-07-18T07:53:57.716Z,3.97
2023-07-18T07:56:00.878Z,3.22
2023-07-18T07:58:03.683Z,3.50
2023-07-18T08:00:08.343Z,3.45
2023-07-18T08:02:11.608Z,2.42
2023-07-18T08:04:14.439Z,2.92
2023-07-18T08:06:17.264Z,2.80
2023-07-18T08:08:20.122Z,3.30
2023-07-18T08:10:22.974Z,2.97
2023-07-18T08:12:28.013Z,2.80
2023-07-18T08:14:30.796Z,2.80
2023-07-18T08:16:33.622Z,2.40
2023-07-18T08:18:37.475Z,2.40
2023-07-18T08:20:40.301Z,2.22
2023-07-18T08:22:42.137Z,2.47
2023-07-18T08:24:44.986Z,2.13
2023-07-18T08:26:47.797Z,2.42
2023-07-18T08:28:51.957Z,2.40
2023-07-18T08:30:54.709Z,2.60
2023-07-18T08:32:57.591Z,2.85
2023-07-18T08:35:00.503Z,2.53
2023-07-18T08:37:03.772Z,2.78
2023-07-18T08:39:11.823Z,2.45
2023-07-18T08:41:15.762Z,3.13
2023-07-18T08:43:19.435Z,1.92
2023-07-18T08:45:25.113Z,1.80
2023-07-18T08:47:28.511Z,2.78
2023-07-18T08:49:35.181Z,2.00
2023-07-18T08:51:39.149Z,2.20
2023-07-18T08:53:42.431Z,1.33
2023-07-18T08:55:46.526Z,1.90
2023-07-18T08:57:51.989Z,2.63
2023-07-18T08:59:56.122Z,1.98
2023-07-18T09:02:00.338Z,1.60
2023-07-18T09:04:03.456Z,1.60
2023-07-18T09:06:18.309Z,1.50
2023-07-18T09:08:21.114Z,1.92
2023-07-18T09:10:24.044Z,2.03
2023-07-18T09:12:29.042Z,2.22
2023-07-18T09:14:33.483Z,2.33
2023-07-18T09:16:36.252Z,1.92
2023-07-18T09:18:40.075Z,1.67
2023-07-18T09:20:42.878Z,1.75
2023-07-18T09:22:45.653Z,1.85
2023-07-18T09:24:49.731Z,1.67
2023-07-18T09:26:53.204Z,1.90
2023-07-18T09:28:57.004Z,1.80
2023-07-18T09:30:59.756Z,1.45
2023-07-18T09:33:05.071Z,1.50
2023-07-18T09:35:12.597Z,1.52
2023-07-18T09:37:15.384Z,1.42
2023-07-18T09:39:17.201Z,1.20
2023-07-18T09:41:21.674Z,1.27
2023-07-18T09:43:26.265Z,1.30
2023-07-18T09:45:31.317Z,1.73
2023-07-18T09:47:35.276Z,1.38
2023-07-18T09:49:41.092Z,1.60
2023-07-18T09:51:50.204Z,1.63
2023-07-18T09:53:57.527Z,1.67
2023-07-18T09:56:02.570Z,1.50
2023-07-18T09:58:05.525Z,1.73
2023-07-18T10:00:13.037Z,1.73
2023-07-18T10:02:16.963Z,1.80
2023-07-18T10:04:21.056Z,1.60
2023-07-18T10:06:24.029Z,1.23
2023-07-18T10:08:28.762Z,1.75
2023-07-18T10:10:32.746Z,1.00
2023-07-18T10:12:36.996Z,1.80
2023-07-18T10:14:57.789Z,1.40
2023-07-18T10:17:07.514Z,1.30
2023-07-18T10:19:18.771Z,1.80
2023-07-18T10:21:32.542Z,1.48
2023-07-18T10:23:43.889Z,1.45
2023-07-18T10:25:57.313Z,1.40
2023-07-18T10:28:01.950Z,1.10
2023-07-18T10:30:05.971Z,1.05
2023-07-18T10:32:11.847Z,1.20
2023-07-18T10:34:16.470Z,1.63
2023-07-18T10:36:26.268Z,1.35
2023-07-18T10:38:36.880Z,1.40
2023-07-18T10:40:44.435Z,1.30
2023-07-18T10:42:47.275Z,1.50
2023-07-18T10:44:49.576Z,1.15
2023-07-18T10:46:52.421Z,1.25
2023-07-18T10:48:55.188Z,1.42
2023-07-18T10:50:58.327Z,1.30
2023-07-18T10:53:00.144Z,0.90
2023-07-18T10:55:05.248Z,1.00
2023-07-18T10:57:10.558Z,0.95
2023-07-18T10:59:14.983Z,1.00
2023-07-18T11:01:18.808Z,1.48
2023-07-18T11:03:23.143Z,1.02
2023-07-18T11:05:27.315Z,0.75
2023-07-18T11:07:36.307Z,0.70
2023-07-18T11:09:38.498Z,1.02
2023-07-18T11:11:41.946Z,1.23
2023-07-18T11:13:46.936Z,0.85
2023-07-18T11:15:49.754Z,1.02
2023-07-18T11:17:54.744Z,1.13
2023-07-18T11:19:58.762Z,1.30
2023-07-18T11:22:01.599Z,0.85
2023-07-18T11:24:04.926Z,1.00
2023-07-18T11:26:14.985Z,0.80
2023-07-18T11:28:17.759Z,0.95
2023-07-18T11:30:24.712Z,0.63
2023-07-18T11:32:36.853Z,1.00
2023-07-18T11:34:42.148Z,1.00
2023-07-18T11:36:44.938Z,1.10
2023-07-18T11:38:50.558Z,0.98
2023-07-18T11:40:53.544Z,1.10
2023-07-18T11:42:59.195Z,0.93
2023-07-18T11:45:02.121Z,0.93
2023-07-18T11:47:12.221Z,1.10
2023-07-18T11:49:16.254Z,0.93
2023-07-18T11:51:19.293Z,0.90
2023-07-18T11:53:28.413Z,0.77
2023-07-18T11:55:31.889Z,1.20
2023-07-18T11:57:34.755Z,1.00
2023-07-18T11:59:38.223Z,0.93
2023-07-18T12:01:41.016Z,0.85
2023-07-18T12:03:45.269Z,1.00
2023-07-18T12:05:48.208Z,0.90
2023-07-18T12:07:50.118Z,0.85
2023-07-18T12:09:52.870Z,1.10
2023-07-18T12:11:56.301Z,0.98
2023-07-18T12:13:59.450Z,1.25
2023-07-18T12:16:02.255Z,1.02
2023-07-18T12:18:05.396Z,1.67
2023-07-18T12:20:11.293Z,1.42
2023-07-18T12:22:14.405Z,1.23
2023-07-18T12:24:17.312Z,1.17
2023-07-18T12:26:20.090Z,1.17
2023-07-18T12:28:22.893Z,1.30
2023-07-18T12:30:25.680Z,1.20
2023-07-18T12:32:31.558Z,1.35
2023-07-18T12:34:35.199Z,1.20
2023-07-18T12:36:39.680Z,1.45
2023-07-18T12:38:42.443Z,1.00
2023-07-18T12:40:45.372Z,1.38
2023-07-18T12:42:48.313Z,1.42
2023-07-18T12:44:51.312Z,1.40
2023-07-18T12:46:54.255Z,1.52
2023-07-18T12:51:04.628Z,1.42
2023-07-18T12:53:08.790Z,2.17
2023-07-18T12:55:12.272Z,1.90
2023-07-18T12:57:15.099Z,2.17
2023-07-18T12:59:17.884Z,2.20
2023-07-18T13:01:20.712Z,1.38
2023-07-18T13:03:23.637Z,2.00
2023-07-18T13:05:26.497Z,1.60
2023-07-18T13:07:29.305Z,1.45
2023-07-18T13:09:33.489Z,1.17
2023-07-18T13:11:36.728Z,1.60
2023-07-18T13:13:39.593Z,1.23
2023-07-18T13:15:42.444Z,1.50
2023-07-18T13:17:45.314Z,1.45
2023-07-18T13:19:48.085Z,2.10
2023-07-18T13:21:50.880Z,1.42
2023-07-18T13:23:53.861Z,1.48
2023-07-18T13:25:58.018Z,1.48
2023-07-18T13:28:00.816Z,1.23
2023-07-18T13:30:03.648Z,1.30
2023-07-18T13:32:08.260Z,0.95
2023-07-18T13:34:13.326Z,1.10
2023-07-18T13:36:17.471Z,1.25
2023-07-18T13:38:20.513Z,1.50
2023-07-18T13:40:23.412Z,1.20
2023-07-18T13:42:28.425Z,0.98
2023-07-18T13:44:31.226Z,1.60
2023-07-18T13:46:34.060Z,1.20
2023-07-18T13:48:36.087Z,1.25
2023-07-18T13:50:39.353Z,1.30
2023-07-18T13:52:42.217Z,1.30
2023-07-18T13:54:45.072Z,1.00
2023-07-18T13:56:47.873Z,1.23
2023-07-18T13:58:52.012Z,1.10
2023-07-18T14:00:54.864Z,1.50
2023-07-18T14:02:59.160Z,1.10
2023-07-18T14:05:02.026Z,1.40
2023-07-18T14:07:05.292Z,0.90
2023-07-18T14:09:08.078Z,1.23
2023-07-18T14:11:10.930Z,0.88
2023-07-18T14:13:13.720Z,1.10
2023-07-18T14:15:18.420Z,1.08
2023-07-18T14:17:20.290Z,1.20
2023-07-18T14:19:23.469Z,1.00
2023-07-18T14:21:25.816Z,0.90
2023-07-18T14:23:28.657Z,1.15
2023-07-18T14:25:30.510Z,0.95
2023-07-18T14:27:33.296Z,1.27
2023-07-18T14:29:36.073Z,1.02
2023-07-18T14:31:40.314Z,1.23
2023-07-18T14:33:55.194Z,1.02
2023-07-18T14:36:02.928Z,1.25
2023-07-18T14:38:05.715Z,1.40
2023-07-18T14:40:09.836Z,1.05
2023-07-18T14:42:12.740Z,1.05
2023-07-18T14:44:15.549Z,1.30
2023-07-18T14:46:18.868Z,1.30
2023-07-18T14:48:23.896Z,1.30
2023-07-18T14:50:26.902Z,1.00
2023-07-18T14:52:29.817Z,1.23
2023-07-18T14:54:32.568Z,0.93
2023-07-18T14:56:38.264Z,1.23
2023-07-18T14:58:41.145Z,1.40
2023-07-18T15:00:45.122Z,1.50
2023-07-18T15:02:49.170Z,1.20
2023-07-18T15:04:53.641Z,0.93
2023-07-18T15:06:56.818Z,1.27
2023-07-18T15:08:59.962Z,1.60
2023-07-18T15:11:02.886Z,1.15
2023-07-18T15:13:05.750Z,1.15
2023-07-18T15:15:10.337Z,1.27
2023-07-18T15:17:14.041Z,1.20
2023-07-18T15:19:16.821Z,1.10
2023-07-18T15:21:21.167Z,1.20
2023-07-18T15:23:23.928Z,1.02
2023-07-18T15:25:26.947Z,1.40
2023-07-18T15:27:28.793Z,1.13
2023-07-18T15:29:31.563Z,1.00
2023-07-18T15:31:34.429Z,1.35
2023-07-18T15:33:37.720Z,1.10
2023-07-18T15:35:41.747Z,1.20
2023-07-18T15:37:45.942Z,1.25
2023-07-18T15:39:48.844Z,0.93
2023-07-18T15:41:51.610Z,1.05
2023-07-18T15:43:55.182Z,1.08
2023-07-18T15:45:58.207Z,1.38
2023-07-18T15:48:01.082Z,0.98
2023-07-18T15:50:03.931Z,1.27
2023-07-18T15:52:09.729Z,1.25
2023-07-18T15:54:14.030Z,1.17
2023-07-18T15:56:17.863Z,1.00
2023-07-18T15:58:20.981Z,1.52
2023-07-18T16:00:23.930Z,1.23
2023-07-18T16:02:26.854Z,1.20
2023-07-18T16:04:29.751Z,1.35
2023-07-18T16:06:32.540Z,1.33
2023-07-18T16:08:36.654Z,1.30
2023-07-18T16:10:39.941Z,1.48
2023-07-18T16:12:43.525Z,1.02
2023-07-18T16:14:46.919Z,1.38
2023-07-18T16:16:50.118Z,1.60
2023-07-18T16:18:54.586Z,1.45
2023-07-18T16:20:57.426Z,1.13
2023-07-18T16:23:00.438Z,1.00
2023-07-18T16:25:08.685Z,1.23
2023-07-18T16:27:12.866Z,1.48
2023-07-18T16:29:15.690Z,1.00
2023-07-18T16:31:20.377Z,1.13
2023-07-18T16:33:23.512Z,1.10
2023-07-18T16:35:26.470Z,1.63
2023-07-18T16:37:29.257Z,1.15
2023-07-18T16:39:33.038Z,0.90
2023-07-18T16:41:35.922Z,1.55
2023-07-18T16:43:40.066Z,0.70
2023-07-18T16:45:44.634Z,1.30
2023-07-18T16:47:46.458Z,1.00
2023-07-18T16:49:49.388Z,1.10
2023-07-18T16:51:52.248Z,0.90
2023-07-18T16:53:55.196Z,1.05
2023-07-18T16:55:58.031Z,1.20
2023-07-18T16:58:00.935Z,0.85
2023-07-18T17:00:06.689Z,0.90
2023-07-18T17:02:09.532Z,1.13
2023-07-18T17:04:12.400Z,0.95
2023-07-18T17:06:15.470Z,1.40
2023-07-18T17:08:20.727Z,0.70
2023-07-18T17:10:23.772Z,0.75
2023-07-18T17:12:26.536Z,1.20
2023-07-18T17:14:29.343Z,1.00
2023-07-18T17:16:33.570Z,1.00
2023-07-18T17:18:36.692Z,1.55
2023-07-18T17:20:39.482Z,1.00
2023-07-18T17:22:42.487Z,0.82
2023-07-18T17:24:45.356Z,0.93
2023-07-18T17:26:49.865Z,0.80
2023-07-18T17:28:52.750Z,1.00
2023-07-18T17:30:55.582Z,0.88
2023-07-18T17:33:00.095Z,1.15
2023-07-18T17:35:03.505Z,1.15
2023-07-18T17:37:07.687Z,0.90
2023-07-18T17:39:10.636Z,0.88
2023-07-18T17:41:12.569Z,0.80
2023-07-18T17:43:15.357Z,0.90
2023-07-18T17:45:18.191Z,0.75
2023-07-18T17:47:21.108Z,0.90
2023-07-18T17:49:25.387Z,0.85
2023-07-18T17:51:28.449Z,0.90
2023-07-18T17:53:31.673Z,0.95
2023-07-18T17:55:34.800Z,1.00
2023-07-18T17:57:38.239Z,0.77
2023-07-18T17:59:42.802Z,0.80
2023-07-18T18:01:45.586Z,0.75
2023-07-18T18:03:49.424Z,1.17
2023-07-18T18:05:53.761Z,1.05
2023-07-18T18:07:55.541Z,1.13
2023-07-18T18:09:58.298Z,0.88
2023-07-18T18:12:01.198Z,0.80
2023-07-18T18:14:04.069Z,0.63
2023-07-18T18:16:09.184Z,1.00
2023-07-18T18:18:12.543Z,1.10
2023-07-18T18:20:15.430Z,0.60
2023-07-18T18:22:19.985Z,0.65
2023-07-18T18:24:21.797Z,0.75
2023-07-18T18:26:25.457Z,0.68
2023-07-18T18:28:28.313Z,1.00
2023-07-18T18:30:31.345Z,0.75
2023-07-18T18:32:34.230Z,0.90
2023-07-18T18:34:37.042Z,1.00
2023-07-18T18:36:40.127Z,0.90
2023-07-18T18:38:44.458Z,0.65
2023-07-18T18:40:47.281Z,0.60
2023-07-18T18:42:50.059Z,0.80
2023-07-18T18:44:52.837Z,1.10
2023-07-18T18:46:55.630Z,0.63
2023-07-18T18:49:01.573Z,0.65
2023-07-18T18:51:06.630Z,1.00
2023-07-18T18:53:09.598Z,0.40
2023-07-18T18:55:19.924Z,1.05
2023-07-18T18:57:23.780Z,0.75
2023-07-18T18:59:27.448Z,0.63
2023-07-18T19:01:30.362Z,0.70
2023-07-18T19:03:33.278Z,0.85
2023-07-18T19:05:36.126Z,0.70
2023-07-18T19:07:39.443Z,1.15
2023-07-18T19:09:42.357Z,1.33
2023-07-18T19:11:47.693Z,0.90
2023-07-18T19:13:50.470Z,1.10
2023-07-18T19:15:52.342Z,0.82
2023-07-18T19:17:55.413Z,1.10
2023-07-18T19:19:58.321Z,1.38
2023-07-18T19:22:01.098Z,1.10
2023-07-18T19:24:03.860Z,1.20
2023-07-18T19:26:06.761Z,0.80
2023-07-18T19:28:09.928Z,0.93
2023-07-18T19:30:14.686Z,0.80
2023-07-18T19:32:17.834Z,1.05
2023-07-18T19:34:20.739Z,1.10
2023-07-18T19:36:22.621Z,0.90
2023-07-18T19:38:25.552Z,1.50
2023-07-18T19:40:28.447Z,0.80
2023-07-18T19:42:31.208Z,1.30
2023-07-18T19:44:36.299Z,0.80
2023-07-18T19:46:39.139Z,0.80
2023-07-18T19:48:41.955Z,0.90
2023-07-18T19:50:44.758Z,1.13
2023-07-18T19:52:47.539Z,0.90
2023-07-18T19:54:50.310Z,1.25
2023-07-18T19:56:53.259Z,1.17
2023-07-18T19:58:56.071Z,1.40
2023-07-18T20:01:00.352Z,1.35
2023-07-18T20:03:03.573Z,1.20
2023-07-18T20:05:07.151Z,1.17
2023-07-18T20:07:10.017Z,1.42
2023-07-18T20:09:12.846Z,1.20
2023-07-18T20:11:14.684Z,1.17
2023-07-18T20:13:17.563Z,1.33
2023-07-18T20:15:20.337Z,1.10
2023-07-18T20:17:24.669Z,1.45
2023-07-18T20:19:28.190Z,1.20
2023-07-18T20:21:31.309Z,1.10
2023-07-18T20:23:34.180Z,1.50
2023-07-18T20:25:37.146Z,1.23
2023-07-18T20:27:39.924Z,1.10
2023-07-18T20:29:44.335Z,0.95
2023-07-18T20:31:47.253Z,0.90
2023-07-18T20:33:52.478Z,1.13
2023-07-18T20:35:55.982Z,1.17
2023-07-18T20:37:59.593Z,1.20
2023-07-18T20:40:05.463Z,0.90
2023-07-18T20:42:08.530Z,1.08
2023-07-18T20:44:11.334Z,1.10
2023-07-18T20:46:14.660Z,1.10
2023-07-18T20:48:17.578Z,1.20
2023-07-18T20:50:22.171Z,1.20
2023-07-18T20:52:25.171Z,0.90
2023-07-18T20:54:29.853Z,0.98
2023-07-18T20:56:32.688Z,0.90
2023-07-18T20:58:35.457Z,1.00
2023-07-18T21:00:38.379Z,1.13
2023-07-18T21:02:41.213Z,1.38
2023-07-18T21:04:44.118Z,1.20
2023-07-18T21:06:48.262Z,1.40
2023-07-18T21:08:51.591Z,1.25
2023-07-18T21:10:53.364Z,1.25
2023-07-18T21:12:56.124Z,1.30
2023-07-18T21:14:58.913Z,1.52
2023-07-18T21:17:02.157Z,1.40
2023-07-18T21:19:05.036Z,1.88
2023-07-18T21:21:07.807Z,1.40
2023-07-18T21:23:12.054Z,1.42
2023-07-18T21:25:14.911Z,1.55
2023-07-18T21:27:17.769Z,1.17
2023-07-18T21:29:20.578Z,2.00
2023-07-18T21:31:23.467Z,1.67
2023-07-18T21:33:26.779Z,1.90
2023-07-18T21:35:29.589Z,1.80
2023-07-18T21:37:32.364Z,1.70
2023-07-18T21:39:36.715Z,1.80
2023-07-18T21:41:39.484Z,1.70
2023-07-18T21:43:42.249Z,1.75
2023-07-18T21:45:45.116Z,2.25
2023-07-18T21:47:47.993Z,2.08
2023-07-18T21:49:50.847Z,1.80
2023-07-18T21:51:53.658Z,2.15
2023-07-18T21:53:55.517Z,2.00
2023-07-18T21:56:02.259Z,2.20
2023-07-18T21:58:06.363Z,2.47
2023-07-18T22:00:09.855Z,2.60
2023-07-18T22:02:12.923Z,2.25
2023-07-18T22:04:15.729Z,2.05
2023-07-18T22:06:18.511Z,2.42
2023-07-18T22:08:21.285Z,2.13
2023-07-18T22:10:24.072Z,2.28
2023-07-18T22:12:28.210Z,2.45
2023-07-18T22:14:30.979Z,1.95
2023-07-18T22:16:33.828Z,2.53
2023-07-18T22:18:37.005Z,2.55
2023-07-18T22:20:39.789Z,2.65
2023-07-18T22:22:42.617Z,1.80
2023-07-18T22:24:45.502Z,2.17
2023-07-18T22:26:48.290Z,2.17
2023-07-18T22:28:52.431Z,2.00
2023-07-18T22:30:55.548Z,2.30
2023-07-18T22:32:58.484Z,2.25
2023-07-18T22:35:01.306Z,2.35
2023-07-18T22:37:04.153Z,2.30
2023-07-18T22:39:07.493Z,2.20
2023-07-18T22:41:11.223Z,2.25
2023-07-18T22:43:13.001Z,2.40
2023-07-18T22:45:17.296Z,1.95
2023-07-18T22:47:20.766Z,1.98
2023-07-18T22:49:26.238Z,2.40
2023-07-18T22:51:29.566Z,1.83
2023-07-18T22:53:34.109Z,1.88
2023-07-18T22:55:36.869Z,1.77
2023-07-18T22:57:39.689Z,1.67
2023-07-18T22:59:41.521Z,1.83
2023-07-18T23:01:45.675Z,2.45
2023-07-18T23:03:48.647Z,1.90
2023-07-18T23:05:51.471Z,1.90
2023-07-18T23:07:54.294Z,2.00
2023-07-18T23:09:57.168Z,1.67
2023-07-18T23:11:59.992Z,1.58
2023-07-18T23:14:02.764Z,1.95
2023-07-18T23:16:06.054Z,1.67
2023-07-18T23:18:10.251Z,1.65
2023-07-18T23:20:14.058Z,1.52
2023-07-18T23:22:16.838Z,1.90
2023-07-18T23:24:19.612Z,1.80
2023-07-18T23:26:22.642Z,1.63
2023-07-18T23:28:25.482Z,2.38
2023-07-18T23:30:27.334Z,1.80
2023-07-18T23:32:30.151Z,1.58
2023-07-18T23:34:34.284Z,1.20
2023-07-18T23:36:37.087Z,1.90
2023-07-18T23:38:39.840Z,1.77
2023-07-18T23:40:42.894Z,1.80
2023-07-18T23:42:44.698Z,1.48
2023-07-18T23:44:47.513Z,1.60
2023-07-18T23:46:50.325Z,1.60
2023-07-18T23:48:53.187Z,1.58
2023-07-18T23:50:58.259Z,1.83
2023-07-18T23:53:01.124Z,1.48
2023-07-18T23:55:04.125Z,1.38
2023-07-18T23:57:07.560Z,1.80
2023-07-18T23:59:10.418Z,1.50
